Time;durP1;ratioP1;P1;durP2;ratioP2;P2;SDS_P1;SDS_P2;PMS_P1;PMS_P2;Temp;Humidity;BMP_temperature;BMP_pressure;BME280_temperature;BME280_humidity;BME280_pressure;Samples;Min_cycle;Max_cycle;Signal;HPM_P1;HPM_P2
2022/07/30 00:00:24;;;;;;;6.13;4.90;;;19.10;99.90;;;;;;5029318;28;20193;-44
2022/07/30 00:02:50;;;;;;;7.50;5.60;;;19.00;99.90;;;;;;5029285;28;20788;-46
2022/07/30 00:05:16;;;;;;;10.70;6.40;;;18.90;99.90;;;;;;5029211;28;20210;-46
2022/07/30 00:07:42;;;;;;;8.50;5.67;;;18.90;99.90;;;;;;5028720;28;20482;-45
2022/07/30 00:10:07;;;;;;;6.67;5.27;;;18.80;99.90;;;;;;5030296;28;20425;-48
2022/07/30 00:12:33;;;;;;;6.27;5.67;;;18.70;99.90;;;;;;5048773;28;20244;-44
2022/07/30 00:14:59;;;;;;;7.60;5.93;;;18.70;99.90;;;;;;5052332;28;20428;-48
2022/07/30 00:17:25;;;;;;;9.17;5.90;;;18.70;99.90;;;;;;5051992;28;20273;-45
2022/07/30 00:19:50;;;;;;;7.10;6.40;;;18.60;99.90;;;;;;5051691;28;20847;-45
2022/07/30 00:22:16;;;;;;;5.67;5.13;;;18.50;99.90;;;;;;5052480;28;20207;-44
2022/07/30 00:24:42;;;;;;;7.70;5.47;;;18.50;99.90;;;;;;5040413;28;20273;-45
2022/07/30 00:27:07;;;;;;;7.90;6.33;;;18.50;99.90;;;;;;5031876;28;20190;-46
2022/07/30 00:29:33;;;;;;;7.50;6.80;;;18.40;99.90;;;;;;5032611;28;20202;-45
2022/07/30 00:31:59;;;;;;;7.33;6.73;;;18.40;99.90;;;;;;5032450;28;20241;-46
2022/07/30 00:34:25;;;;;;;6.73;6.10;;;18.30;99.90;;;;;;5032418;28;20193;-47
2022/07/30 00:36:51;;;;;;;7.00;6.40;;;18.30;99.90;;;;;;5030637;28;20202;-47
2022/07/30 00:39:17;;;;;;;7.60;6.90;;;18.20;99.90;;;;;;5032252;28;20413;-49
2022/07/30 00:41:56;;;;;;;6.80;6.20;;;18.10;99.90;;;;;;5040931;28;20426;-45
2022/07/30 00:44:22;;;;;;;8.57;6.30;;;18.10;99.90;;;;;;5052192;28;20189;-45
2022/07/30 00:46:48;;;;;;;7.17;6.40;;;18.00;99.90;;;;;;5039140;28;20444;-44
2022/07/30 00:49:14;;;;;;;8.03;6.23;;;18.00;99.90;;;;;;5047815;28;20196;-46
2022/07/30 00:51:39;;;;;;;7.60;6.90;;;17.80;99.90;;;;;;5032008;28;20558;-47
2022/07/30 00:54:05;;;;;;;6.63;5.93;;;17.80;99.90;;;;;;5031828;28;20418;-45
2022/07/30 00:56:31;;;;;;;6.70;6.13;;;17.70;99.90;;;;;;5031769;28;20218;-47
2022/07/30 00:58:56;;;;;;;6.90;6.20;;;17.60;99.90;;;;;;5031784;28;20984;-45
2022/07/30 01:01:22;;;;;;;6.57;5.97;;;17.60;99.90;;;;;;5032006;28;20190;-46
2022/07/30 01:03:48;;;;;;;6.57;5.93;;;17.50;99.90;;;;;;5031844;28;20194;-44
2022/07/30 01:06:13;;;;;;;6.90;6.20;;;17.50;99.90;;;;;;5031758;28;20565;-46
2022/07/30 01:08:41;;;;;;;8.20;7.40;;;17.40;99.90;;;;;;5031173;28;20205;-45
2022/07/30 01:11:08;;;;;;;7.97;6.73;;;17.40;99.90;;;;;;5040850;28;20553;-46
2022/07/30 01:13:34;;;;;;;7.80;6.47;;;17.30;99.90;;;;;;5051477;28;20886;-46
2022/07/30 01:16:00;;;;;;;9.37;7.27;;;17.30;99.90;;;;;;5051516;28;20458;-47
2022/07/30 01:19:47;;;;;;;8.20;7.03;;;17.30;99.90;;;;;;5050792;28;20182;-46
2022/07/30 01:21:20;;;;;;;7.43;6.50;;;17.20;99.90;;;;;;5051115;28;20194;-46
2022/07/30 01:23:46;;;;;;;7.57;6.40;;;17.20;99.90;;;;;;5046989;28;20429;-45
2022/07/30 01:26:17;;;;;;;7.70;6.47;;;17.20;99.90;;;;;;5030394;28;20425;-45
2022/07/30 01:28:53;;;;;;;7.17;6.47;;;17.20;99.90;;;;;;5037649;28;20417;-44
2022/07/30 01:31:20;;;;;;;9.27;6.80;;;17.10;99.90;;;;;;5051047;28;20448;-48
2022/07/30 01:33:48;;;;;;;8.70;7.00;;;17.10;99.90;;;;;;5051087;28;20456;-44
2022/07/30 01:36:16;;;;;;;7.73;7.03;;;17.10;99.90;;;;;;5051049;28;20416;-47
2022/07/30 01:38:45;;;;;;;8.37;7.50;;;17.10;99.90;;;;;;5050680;28;20424;-49
2022/07/30 01:41:12;;;;;;;7.83;6.93;;;17.00;99.90;;;;;;5046151;28;20548;-46
2022/07/30 01:43:39;;;;;;;9.30;6.60;;;17.00;99.90;;;;;;5046679;28;20462;-46
2022/07/30 01:46:07;;;;;;;7.57;6.80;;;17.00;99.90;;;;;;5030965;28;20431;-45
2022/07/30 01:48:39;;;;;;;7.80;7.03;;;16.90;99.90;;;;;;5030199;28;20421;-44
2022/07/30 01:51:06;;;;;;;9.13;6.70;;;16.80;99.90;;;;;;5039390;28;20942;-45
2022/07/30 01:53:35;;;;;;;10.03;7.27;;;16.90;99.90;;;;;;5030984;28;20452;-45
2022/07/30 01:56:02;;;;;;;7.60;6.80;;;16.80;99.90;;;;;;5030976;28;20440;-45
2022/07/30 01:58:32;;;;;;;7.77;7.00;;;16.80;99.90;;;;;;5030163;28;20422;-46
2022/07/30 02:00:58;;;;;;;8.00;7.20;;;16.80;99.90;;;;;;5030828;28;20421;-45
2022/07/30 02:03:25;;;;;;;8.53;7.73;;;16.70;99.90;;;;;;5030674;28;20516;-44
2022/07/30 02:06:11;;;;;;;8.20;7.50;;;16.70;99.90;;;;;;5030738;28;20680;-45
2022/07/30 02:08:41;;;;;;;7.53;6.83;;;16.70;99.90;;;;;;5029985;28;20435;-45
2022/07/30 02:11:13;;;;;;;8.03;7.33;;;16.70;99.90;;;;;;5039269;28;20421;-45
2022/07/30 02:13:52;;;;;;;8.13;7.33;;;16.60;99.90;;;;;;5044093;28;20425;-44
2022/07/30 02:16:31;;;;;;;8.63;7.37;;;16.60;99.90;;;;;;5038937;28;20413;-46
2022/07/30 02:19:05;;;;;;;7.83;7.13;;;16.60;99.90;;;;;;5035861;28;20424;-46
2022/07/30 02:21:38;;;;;;;10.00;7.70;;;16.60;99.90;;;;;;5050438;28;20429;-45
2022/07/30 02:24:07;;;;;;;8.63;7.80;;;16.50;99.90;;;;;;5043194;28;20428;-47
2022/07/30 02:26:37;;;;;;;8.90;7.80;;;16.50;99.90;;;;;;5029813;28;20433;-45
2022/07/30 02:29:04;;;;;;;8.40;7.70;;;16.50;99.90;;;;;;5030128;28;20429;-47
2022/07/30 02:31:31;;;;;;;8.60;7.67;;;16.50;99.90;;;;;;5030064;28;20472;-48
2022/07/30 02:34:01;;;;;;;8.87;8.07;;;16.50;99.90;;;;;;5030256;28;20426;-46
2022/07/30 02:36:28;;;;;;;9.27;8.47;;;16.60;99.90;;;;;;5029647;28;20417;-47
2022/07/30 02:38:56;;;;;;;12.40;8.40;;;16.70;99.90;;;;;;5029680;28;20820;-45
2022/07/30 02:41:25;;;;;;;9.23;8.37;;;16.60;99.90;;;;;;5035698;28;20896;-46
2022/07/30 02:43:52;;;;;;;8.93;8.10;;;16.70;99.90;;;;;;5050176;28;20477;-45
2022/07/30 02:46:20;;;;;;;9.83;8.93;;;16.60;99.90;;;;;;5049935;28;20612;-45
2022/07/30 02:48:47;;;;;;;8.40;7.70;;;16.60;99.90;;;;;;5049157;28;20432;-46
2022/07/30 02:51:15;;;;;;;8.87;7.97;;;16.60;99.90;;;;;;5049780;28;20435;-44
2022/07/30 02:53:45;;;;;;;8.90;8.00;;;16.60;99.90;;;;;;5049965;28;20528;-46
2022/07/30 02:56:12;;;;;;;9.03;8.00;;;16.60;99.90;;;;;;5049717;28;20819;-45
2022/07/30 02:58:39;;;;;;;9.00;8.03;;;16.70;99.90;;;;;;5045396;28;20858;-45
2022/07/30 03:01:07;;;;;;;10.50;9.20;;;16.70;99.90;;;;;;5036375;28;20413;-45
2022/07/30 03:03:33;;;;;;;9.47;8.60;;;16.80;99.90;;;;;;5029605;28;20421;-45
2022/07/30 03:06:01;;;;;;;9.13;8.27;;;16.90;99.90;;;;;;5029877;28;20433;-45
2022/07/30 03:08:30;;;;;;;11.10;8.20;;;16.90;99.90;;;;;;5029194;28;20471;-45
2022/07/30 03:10:56;;;;;;;9.03;8.20;;;17.00;99.90;;;;;;5037352;28;20416;-47
2022/07/30 03:13:23;;;;;;;10.33;9.13;;;17.10;99.90;;;;;;5049478;28;20464;-47
2022/07/30 03:15:50;;;;;;;10.67;8.53;;;17.10;99.90;;;;;;5050016;28;20423;-45
2022/07/30 03:18:18;;;;;;;9.43;8.63;;;17.10;99.90;;;;;;5049056;28;20519;-45
2022/07/30 03:20:55;;;;;;;9.30;8.37;;;17.00;99.90;;;;;;5048592;28;20922;-45
2022/07/30 03:23:22;;;;;;;13.20;9.30;;;17.00;99.90;;;;;;5048328;28;20424;-47
2022/07/30 03:25:55;;;;;;;10.23;8.50;;;16.90;99.90;;;;;;5029805;28;20409;-46
2022/07/30 03:28:22;;;;;;;11.27;8.37;;;16.90;99.90;;;;;;5028707;28;20444;-45
2022/07/30 03:30:49;;;;;;;15.70;10.37;;;16.90;99.90;;;;;;5029887;28;20482;-46
2022/07/30 03:33:15;;;;;;;10.23;8.83;;;16.80;99.90;;;;;;5029484;28;20987;-44
2022/07/30 03:35:43;;;;;;;9.83;9.00;;;16.80;99.90;;;;;;5029669;28;20508;-45
2022/07/30 03:38:13;;;;;;;10.07;9.17;;;16.70;99.90;;;;;;5027551;28;20482;-45
2022/07/30 03:40:41;;;;;;;10.43;9.43;;;16.70;99.90;;;;;;5041906;28;21041;-44
2022/07/30 03:43:09;;;;;;;12.07;10.00;;;16.70;99.90;;;;;;5040410;28;20424;-46
2022/07/30 03:45:36;;;;;;;9.83;7.63;;;16.70;99.90;;;;;;5038241;28;20423;-46
2022/07/30 03:48:06;;;;;;;11.23;10.23;;;16.70;99.90;;;;;;5035020;28;20952;-44
2022/07/30 03:50:37;;;;;;;11.40;8.93;;;16.60;99.90;;;;;;5033278;28;20437;-46
2022/07/30 03:53:04;;;;;;;11.47;10.27;;;16.60;99.90;;;;;;5033073;28;20469;-45
2022/07/30 03:55:32;;;;;;;10.73;9.57;;;16.50;99.90;;;;;;5032895;28;20429;-45
2022/07/30 03:57:59;;;;;;;12.07;10.53;;;16.60;99.90;;;;;;5032447;28;20416;-45
2022/07/30 04:00:26;;;;;;;10.87;9.87;;;16.60;99.90;;;;;;5033216;28;20524;-46
2022/07/30 04:02:52;;;;;;;11.73;10.60;;;16.60;99.90;;;;;;5033046;28;20512;-47
2022/07/30 04:05:18;;;;;;;12.00;10.90;;;16.60;99.90;;;;;;5032830;28;20452;-45
2022/07/30 04:07:44;;;;;;;12.00;10.80;;;16.80;99.90;;;;;;5032427;28;20861;-45
2022/07/30 04:10:10;;;;;;;12.10;10.83;;;16.80;99.90;;;;;;5034010;28;20559;-46
2022/07/30 04:12:36;;;;;;;12.07;10.70;;;16.80;99.90;;;;;;5046614;28;20482;-45
2022/07/30 04:15:02;;;;;;;12.20;11.10;;;16.80;99.90;;;;;;5047893;28;20185;-46
2022/07/30 04:17:48;;;;;;;13.43;11.73;;;16.90;99.90;;;;;;5032148;28;20780;-45
2022/07/30 04:20:30;;;;;;;12.67;11.37;;;16.90;99.90;;;;;;5031821;28;20792;-45
2022/07/30 04:22:57;;;;;;;12.33;11.20;;;16.90;99.90;;;;;;5032875;28;20425;-46
2022/07/30 04:25:24;;;;;;;12.63;11.43;;;16.80;99.90;;;;;;5044062;28;20449;-46
2022/07/30 04:27:50;;;;;;;14.33;12.93;;;16.90;99.90;;;;;;5031944;28;20417;-46
2022/07/30 04:30:16;;;;;;;15.20;12.77;;;16.90;99.90;;;;;;5040574;28;20439;-47
2022/07/30 04:32:42;;;;;;;11.53;10.40;;;16.90;99.90;;;;;;5047210;28;20551;-45
2022/07/30 04:35:08;;;;;;;12.97;11.63;;;16.90;99.90;;;;;;5032388;28;21035;-47
2022/07/30 04:37:33;;;;;;;14.10;11.50;;;16.90;99.90;;;;;;5031815;28;20417;-45
2022/07/30 04:39:59;;;;;;;16.50;12.77;;;17.00;99.90;;;;;;5032479;28;20491;-44
2022/07/30 04:42:27;;;;;;;13.10;11.90;;;17.00;99.90;;;;;;5046663;28;20190;-45
2022/07/30 04:44:53;;;;;;;14.63;13.23;;;17.10;99.90;;;;;;5052296;28;20432;-44
2022/07/30 04:47:20;;;;;;;14.93;13.53;;;17.10;99.90;;;;;;5051296;28;20416;-46
2022/07/30 04:49:47;;;;;;;19.73;14.33;;;17.10;99.90;;;;;;5051952;28;20539;-47
2022/07/30 04:52:14;;;;;;;17.60;15.90;;;17.20;99.90;;;;;;5051831;28;20464;-45
2022/07/30 04:54:45;;;;;;;14.97;13.47;;;17.20;99.90;;;;;;5052023;28;20428;-46
2022/07/30 04:57:14;;;;;;;17.00;14.30;;;17.20;99.90;;;;;;5051474;28;20937;-45
2022/07/30 04:59:39;;;;;;;16.20;14.63;;;17.20;99.90;;;;;;5051553;28;20435;-45
2022/07/30 05:02:07;;;;;;;16.70;14.10;;;17.30;99.90;;;;;;5051668;28;20424;-45
2022/07/30 05:04:34;;;;;;;16.53;14.83;;;17.30;99.90;;;;;;5051687;28;20205;-45
2022/07/30 05:07:01;;;;;;;15.50;13.90;;;17.30;99.90;;;;;;5051223;28;20455;-45
2022/07/30 05:09:28;;;;;;;14.60;13.20;;;17.40;99.90;;;;;;5042963;28;20427;-45
2022/07/30 05:11:55;;;;;;;18.50;14.20;;;17.40;99.90;;;;;;5031652;28;20835;-44
2022/07/30 05:14:22;;;;;;;20.83;16.10;;;17.50;99.90;;;;;;5031642;28;20421;-44
2022/07/30 05:16:49;;;;;;;17.97;16.07;;;17.50;99.90;;;;;;5030765;28;20413;-45
2022/07/30 05:19:15;;;;;;;18.57;16.30;;;17.50;99.90;;;;;;5030839;28;20819;-45
2022/07/30 05:21:41;;;;;;;18.43;16.43;;;17.60;99.90;;;;;;5031709;28;20783;-51
2022/07/30 05:24:07;;;;;;;21.43;17.20;;;17.50;99.90;;;;;;5038900;28;20416;-46
2022/07/30 05:26:33;;;;;;;19.90;16.53;;;17.60;99.90;;;;;;5046228;28;20650;-45
2022/07/30 05:28:58;;;;;;;23.83;18.47;;;17.60;99.90;;;;;;5031510;28;20198;-48
2022/07/30 05:31:24;;;;;;;27.20;20.40;;;17.60;99.90;;;;;;5031036;28;20211;-45
2022/07/30 05:33:50;;;;;;;31.20;20.50;;;17.70;99.90;;;;;;5031632;28;20552;-47
2022/07/30 05:36:16;;;;;;;29.53;20.93;;;17.70;99.90;;;;;;5031375;28;20615;-48
2022/07/30 05:38:42;;;;;;;26.40;20.17;;;17.80;99.90;;;;;;5029437;28;20833;-47
2022/07/30 05:41:08;;;;;;;27.60;20.63;;;17.80;99.90;;;;;;5035158;28;20190;-44
2022/07/30 05:43:34;;;;;;;29.77;22.93;;;17.80;99.90;;;;;;5051066;28;20771;-49
2022/07/30 05:45:59;;;;;;;30.57;21.87;;;17.70;99.90;;;;;;5050771;28;20186;-44
2022/07/30 05:48:26;;;;;;;34.57;23.70;;;17.80;99.90;;;;;;5042615;28;20300;-45
2022/07/30 05:50:52;;;;;;;34.80;23.70;;;17.70;99.90;;;;;;5041081;28;20560;-47
2022/07/30 05:53:18;;;;;;;30.50;22.47;;;17.80;99.90;;;;;;5030910;28;20465;-45
2022/07/30 05:55:44;;;;;;;31.83;22.53;;;17.80;99.90;;;;;;5030967;28;20444;-46
2022/07/30 05:58:10;;;;;;;34.07;23.80;;;17.90;99.90;;;;;;5030254;28;20183;-48
2022/07/30 06:00:36;;;;;;;36.27;24.60;;;17.90;99.90;;;;;;5030687;28;20506;-44
2022/07/30 06:03:02;;;;;;;33.93;23.20;;;18.00;99.90;;;;;;5030897;28;20200;-46
2022/07/30 06:05:28;;;;;;;27.70;22.60;;;18.10;99.90;;;;;;5030659;28;20277;-47
2022/07/30 06:07:53;;;;;;;28.43;21.83;;;18.20;99.90;;;;;;5030066;28;20840;-47
2022/07/30 06:10:20;;;;;;;27.37;20.80;;;18.30;99.90;;;;;;5033134;28;20237;-45
2022/07/30 06:12:45;;;;;;;25.00;20.93;;;18.40;99.90;;;;;;5049716;28;20460;-47
2022/07/30 06:15:11;;;;;;;35.40;24.87;;;18.40;99.90;;;;;;5050317;28;20982;-46
2022/07/30 06:17:44;;;;;;;29.27;23.20;;;18.50;99.90;;;;;;5049715;28;20628;-45
2022/07/30 06:20:12;;;;;;;26.67;21.30;;;18.40;99.90;;;;;;5049710;28;20240;-46
2022/07/30 06:22:38;;;;;;;26.87;21.70;;;18.40;99.90;;;;;;5049108;28;21043;-46
2022/07/30 06:25:05;;;;;;;28.97;21.87;;;18.50;99.90;;;;;;5034998;28;20923;-46
2022/07/30 06:27:32;;;;;;;26.33;20.30;;;18.70;99.90;;;;;;5029496;28;20456;-47
2022/07/30 06:30:03;;;;;;;27.90;24.10;;;18.70;99.90;;;;;;5041839;28;20457;-47
2022/07/30 06:32:28;;;;;;;30.63;24.90;;;18.80;99.90;;;;;;5038429;28;20465;-47
2022/07/30 06:34:54;;;;;;;34.50;26.30;;;18.80;99.90;;;;;;5032724;28;20428;-47
2022/07/30 06:37:20;;;;;;;37.53;27.67;;;18.90;99.90;;;;;;5037992;28;20224;-47
2022/07/30 06:39:46;;;;;;;34.90;27.87;;;19.00;99.90;;;;;;5037453;28;20170;-47
2022/07/30 06:42:12;;;;;;;35.07;27.90;;;19.10;99.90;;;;;;5034383;28;20795;-44
2022/07/30 06:44:37;;;;;;;38.23;30.10;;;19.20;99.90;;;;;;5042545;28;20186;-45
2022/07/30 06:47:03;;;;;;;34.10;27.73;;;19.30;99.90;;;;;;5032749;28;20821;-45
2022/07/30 06:49:34;;;;;;;32.93;28.00;;;19.30;99.90;;;;;;5041305;28;20643;-45
2022/07/30 06:52:00;;;;;;;30.97;26.00;;;19.30;99.90;;;;;;5050155;28;20794;-45
2022/07/30 06:54:25;;;;;;;30.27;23.93;;;19.30;99.90;;;;;;5040056;28;20479;-47
2022/07/30 06:56:51;;;;;;;35.20;27.10;;;19.20;99.90;;;;;;5046137;28;20942;-46
2022/07/30 06:59:17;;;;;;;28.97;25.07;;;19.20;99.90;;;;;;5044394;28;20190;-45
2022/07/30 07:01:43;;;;;;;33.70;28.97;;;19.10;99.90;;;;;;5049528;28;20182;-45
2022/07/30 07:04:09;;;;;;;34.60;30.47;;;19.10;99.90;;;;;;5031076;28;20690;-44
2022/07/30 07:06:34;;;;;;;41.70;34.07;;;19.00;99.90;;;;;;5029075;28;20448;-45
2022/07/30 07:09:00;;;;;;;41.87;36.03;;;19.10;99.90;;;;;;5029873;28;20186;-45
2022/07/30 07:11:26;;;;;;;54.07;39.87;;;19.00;99.90;;;;;;5041163;28;20196;-45
2022/07/30 07:13:51;;;;;;;47.53;38.17;;;19.10;99.90;;;;;;5041065;28;20652;-45
2022/07/30 07:16:23;;;;;;;46.20;37.30;;;19.10;99.90;;;;;;5042102;28;20189;-44
2022/07/30 07:18:51;;;;;;;44.83;37.33;;;19.20;99.90;;;;;;5040599;28;20195;-47
2022/07/30 07:21:17;;;;;;;40.80;35.20;;;19.30;99.90;;;;;;5037264;28;20978;-44
2022/07/30 07:23:43;;;;;;;45.90;40.60;;;19.40;99.90;;;;;;5036566;28;20418;-45
2022/07/30 07:26:10;;;;;;;44.60;37.77;;;19.40;99.90;;;;;;5041436;28;20429;-44
2022/07/30 07:28:36;;;;;;;50.63;39.80;;;19.50;99.90;;;;;;5032892;28;20471;-46
2022/07/30 07:31:02;;;;;;;52.30;43.20;;;19.60;99.90;;;;;;5033823;28;20979;-45
2022/07/30 07:33:28;;;;;;;46.60;39.77;;;19.60;99.90;;;;;;5044294;28;20465;-45
2022/07/30 07:35:54;;;;;;;50.00;40.90;;;19.70;99.90;;;;;;5036868;28;20924;-45
2022/07/30 07:38:20;;;;;;;41.53;36.30;;;19.80;99.90;;;;;;5038586;28;20893;-46
2022/07/30 07:40:46;;;;;;;40.07;33.63;;;19.70;99.90;;;;;;5053307;28;20193;-48
2022/07/30 07:43:13;;;;;;;38.40;30.40;;;19.60;99.90;;;;;;5053317;28;20432;-45
2022/07/30 07:45:40;;;;;;;33.07;26.77;;;19.50;99.90;;;;;;5053379;28;20431;-48
2022/07/30 07:48:06;;;;;;;34.00;28.27;;;19.50;99.90;;;;;;5052550;28;20432;-45
2022/07/30 07:50:32;;;;;;;34.23;26.33;;;19.40;99.90;;;;;;5053150;28;20427;-47
2022/07/30 07:52:58;;;;;;;36.23;28.17;;;19.40;99.90;;;;;;5052816;28;20460;-45
2022/07/30 07:55:23;;;;;;;44.43;31.60;;;19.50;99.90;;;;;;5046426;28;20240;-47
2022/07/30 07:57:49;;;;;;;39.57;29.10;;;19.60;99.90;;;;;;5042928;28;20537;-45
2022/07/30 08:00:16;;;;;;;49.10;33.17;;;19.70;99.90;;;;;;5042580;28;20197;-44
2022/07/30 08:02:42;;;;;;;41.30;31.27;;;19.80;99.90;;;;;;5041850;28;20185;-45
2022/07/30 08:05:09;;;;;;;51.00;34.97;;;19.90;99.90;;;;;;5048210;28;21016;-44
2022/07/30 08:07:35;;;;;;;47.70;33.30;;;19.90;99.90;;;;;;5041913;28;21108;-44
2022/07/30 08:10:01;;;;;;;58.67;37.53;;;20.00;99.90;;;;;;5032996;28;20436;-46
2022/07/30 08:12:27;;;;;;;62.20;39.67;;;20.10;99.90;;;;;;5052938;28;20459;-44
2022/07/30 08:14:53;;;;;;;64.70;40.50;;;20.10;99.90;;;;;;5052753;28;20284;-46
2022/07/30 08:17:19;;;;;;;67.13;39.93;;;20.20;99.90;;;;;;5052152;28;20224;-45
2022/07/30 08:19:45;;;;;;;65.13;40.53;;;20.20;99.90;;;;;;5051639;28;20420;-47
2022/07/30 08:22:11;;;;;;;67.03;38.47;;;20.20;99.90;;;;;;5052254;28;20186;-44
2022/07/30 08:24:37;;;;;;;66.37;39.60;;;20.20;99.90;;;;;;5041267;28;20544;-45
2022/07/30 08:27:03;;;;;;;69.27;41.00;;;20.20;99.90;;;;;;5031861;28;20500;-47
2022/07/30 08:29:29;;;;;;;66.73;43.87;;;20.30;99.90;;;;;;5032735;28;20639;-48
2022/07/30 08:31:55;;;;;;;64.83;41.27;;;20.30;99.90;;;;;;5032437;28;20461;-44
2022/07/30 08:34:21;;;;;;;69.60;42.00;;;20.30;99.90;;;;;;5032066;28;20955;-46
2022/07/30 08:36:47;;;;;;;75.20;42.80;;;20.30;99.90;;;;;;5031382;28;20425;-45
2022/07/30 08:39:12;;;;;;;69.30;40.90;;;20.30;99.90;;;;;;5032506;28;20504;-44
2022/07/30 08:41:40;;;;;;;67.33;42.67;;;20.30;99.90;;;;;;5040354;28;20503;-44
2022/07/30 08:44:10;;;;;;;58.63;40.00;;;20.30;99.90;;;;;;5052384;28;20538;-45
2022/07/30 08:46:39;;;;;;;63.63;40.40;;;20.30;99.90;;;;;;5051561;28;20421;-44
2022/07/30 08:49:06;;;;;;;52.53;36.30;;;20.30;99.90;;;;;;5051829;28;20427;-46
2022/07/30 08:51:33;;;;;;;59.17;37.33;;;20.40;99.90;;;;;;5042504;28;20518;-45
2022/07/30 08:54:00;;;;;;;53.53;35.37;;;20.40;99.90;;;;;;5037363;28;20520;-47
2022/07/30 08:56:27;;;;;;;57.30;36.10;;;20.50;99.90;;;;;;5030886;28;21091;-48
2022/07/30 08:58:54;;;;;;;54.17;37.53;;;20.50;99.90;;;;;;5031364;28;20421;-47
2022/07/30 09:01:21;;;;;;;54.77;34.67;;;20.60;99.90;;;;;;5032125;28;20487;-45
2022/07/30 09:03:47;;;;;;;51.50;33.30;;;20.60;99.90;;;;;;5031556;28;20752;-45
2022/07/30 09:06:13;;;;;;;47.80;32.13;;;20.60;99.90;;;;;;5032014;28;20502;-47
2022/07/30 09:08:40;;;;;;;43.37;30.70;;;20.70;99.90;;;;;;5031006;28;20825;-45
2022/07/30 09:11:06;;;;;;;41.20;30.20;;;20.80;99.90;;;;;;5038384;28;20519;-46
2022/07/30 09:13:36;;;;;;;45.57;31.20;;;20.90;99.90;;;;;;5037031;28;21057;-45
2022/07/30 09:16:04;;;;;;;43.80;28.63;;;21.00;99.90;;;;;;5045487;28;20544;-44
2022/07/30 09:18:39;;;;;;;39.20;26.30;;;21.10;99.90;;;;;;5046397;28;20429;-46
2022/07/30 09:21:28;;;;;;;38.97;27.20;;;21.20;99.90;;;;;;5031565;28;20850;-44
2022/07/30 09:24:08;;;;;;;32.13;23.97;;;21.40;99.90;;;;;;5036797;28;20428;-49
2022/07/30 09:26:50;;;;;;;37.50;27.37;;;21.50;99.90;;;;;;5035059;28;20409;-44
2022/07/30 09:29:19;;;;;;;34.33;27.67;;;21.70;99.90;;;;;;5031407;28;20440;-47
2022/07/30 09:32:00;;;;;;;32.80;24.93;;;21.70;99.90;;;;;;5031516;28;20460;-46
2022/07/30 09:34:27;;;;;;;34.57;26.00;;;21.90;99.90;;;;;;5031371;28;20409;-46
2022/07/30 09:36:54;;;;;;;35.47;26.50;;;22.10;99.90;;;;;;5030755;28;20429;-47
2022/07/30 09:39:34;;;;;;;31.00;25.60;;;22.20;99.90;;;;;;5031100;28;20440;-45
2022/07/30 09:42:02;;;;;;;31.30;25.20;;;22.30;99.90;;;;;;5042256;28;20428;-46
2022/07/30 09:44:29;;;;;;;31.60;24.70;;;22.40;99.90;;;;;;5051126;28;20420;-49
2022/07/30 09:46:56;;;;;;;32.93;26.10;;;22.50;99.90;;;;;;5042977;28;20430;-49
2022/07/30 09:49:26;;;;;;;28.60;24.30;;;22.70;99.90;;;;;;5044711;28;20772;-45
2022/07/30 09:51:53;;;;;;;28.10;24.27;;;22.80;99.90;;;;;;5030721;28;21006;-46
2022/07/30 09:54:19;;;;;;;24.70;21.33;;;22.90;99.90;;;;;;5031158;28;20846;-47
2022/07/30 09:56:45;;;;;;;23.73;20.30;;;23.00;99.90;;;;;;5030188;28;20427;-46
2022/07/30 09:59:27;;;;;;;27.87;20.57;;;23.10;99.90;;;;;;5032990;28;20479;-44
2022/07/30 10:01:54;;;;;;;23.60;19.17;;;23.30;99.90;;;;;;5047017;28;20189;-47
2022/07/30 10:04:27;;;;;;;21.50;18.00;;;23.40;99.90;;;;;;5031060;28;20432;-45
2022/07/30 10:07:00;;;;;;;20.83;16.00;;;23.50;99.90;;;;;;5107090;27;20576;-46
2022/07/30 10:09:29;;;;;;;15.07;13.67;;;23.60;99.90;;;;;;5107904;28;20951;-47
2022/07/30 10:11:56;;;;;;;13.53;12.00;;;23.60;99.90;;;;;;5107687;28;20413;-44
2022/07/30 10:14:27;;;;;;;15.83;13.10;;;23.60;99.90;;;;;;5107883;28;20513;-46
2022/07/30 10:16:53;;;;;;;14.87;13.37;;;23.80;99.90;;;;;;5105494;28;20416;-49
2022/07/30 10:19:20;;;;;;;17.10;15.50;;;23.80;99.90;;;;;;5106144;28;20421;-46
2022/07/30 10:21:47;;;;;;;14.90;12.07;;;24.00;99.90;;;;;;5107521;28;20421;-44
2022/07/30 10:24:17;;;;;;;16.77;11.30;;;24.00;99.90;;;;;;5115264;28;20425;-44
2022/07/30 10:26:44;;;;;;;17.77;12.17;;;23.80;99.90;;;;;;5109653;27;20458;-45
2022/07/30 10:29:10;;;;;;;14.67;10.90;;;23.90;99.90;;;;;;5107107;28;20425;-46
2022/07/30 10:31:36;;;;;;;12.30;10.60;;;23.90;99.90;;;;;;5106844;28;20422;-44
2022/07/30 10:34:03;;;;;;;11.43;10.33;;;24.00;99.90;;;;;;5106523;28;20804;-45
2022/07/30 10:36:29;;;;;;;12.93;9.40;;;24.00;99.90;;;;;;5106694;28;20494;-47
2022/07/30 10:38:55;;;;;;;9.37;7.50;;;24.00;99.90;;;;;;5106027;28;20429;-44
2022/07/30 10:41:36;;;;;;;11.23;9.07;;;24.10;99.90;;;;;;5106580;28;20428;-44
2022/07/30 10:44:41;;;;;;;9.17;8.23;;;24.20;99.90;;;;;;5106363;28;20457;-47
2022/07/30 10:47:10;;;;;;;9.30;7.30;;;24.10;99.90;;;;;;5095165;28;20985;-44
2022/07/30 10:49:36;;;;;;;9.70;8.67;;;24.20;99.90;;;;;;5106567;28;20448;-44
2022/07/30 10:52:02;;;;;;;9.57;8.40;;;24.20;99.90;;;;;;5106855;28;20509;-45
2022/07/30 10:54:44;;;;;;;13.20;8.90;;;24.30;99.90;;;;;;5106760;28;20517;-45
2022/07/30 10:57:17;;;;;;;11.60;8.70;;;24.40;99.90;;;;;;5106310;28;20427;-44
2022/07/30 10:59:48;;;;;;;10.70;9.67;;;24.50;99.90;;;;;;5106802;28;20457;-45
2022/07/30 11:02:15;;;;;;;14.07;9.00;;;24.70;99.90;;;;;;5106711;28;20425;-43
2022/07/30 11:04:41;;;;;;;12.73;9.17;;;24.60;99.80;;;;;;5105002;28;21253;-43
2022/07/30 11:07:28;;;;;;;9.60;8.73;;;24.40;99.80;;;;;;5106020;28;20772;-43
2022/07/30 11:09:55;;;;;;;8.63;7.93;;;24.20;99.60;;;;;;5106714;28;20409;-45
2022/07/30 11:12:40;;;;;;;8.53;7.73;;;24.20;99.90;;;;;;5106527;28;20798;-43
2022/07/30 11:15:07;;;;;;;8.83;8.13;;;24.20;99.90;;;;;;5106364;28;20409;-43
2022/07/30 11:17:59;;;;;;;9.83;8.57;;;24.40;99.80;;;;;;5096743;28;20410;-44
2022/07/30 11:20:27;;;;;;;10.83;9.67;;;24.60;99.50;;;;;;5091647;28;20425;-47
2022/07/30 11:22:52;;;;;;;9.60;8.80;;;24.70;99.90;;;;;;5092773;28;20422;-43
2022/07/30 11:25:21;;;;;;;9.77;8.87;;;24.70;98.30;;;;;;5092548;28;21177;-45
2022/07/30 11:27:49;;;;;;;11.20;10.07;;;24.70;98.20;;;;;;5091789;28;20181;-44
2022/07/30 11:30:14;;;;;;;10.53;8.80;;;24.80;98.40;;;;;;5092612;28;21088;-46
2022/07/30 11:32:44;;;;;;;10.70;9.10;;;24.80;98.10;;;;;;5091093;28;20498;-43
2022/07/30 11:35:12;;;;;;;8.20;7.50;;;24.80;97.20;;;;;;5092763;28;20679;-45
2022/07/30 11:38:03;;;;;;;10.53;8.67;;;24.80;97.30;;;;;;5091805;28;20445;-45
2022/07/30 11:40:35;;;;;;;8.87;7.97;;;24.90;98.60;;;;;;5092548;28;20505;-47
2022/07/30 11:43:31;;;;;;;10.37;9.27;;;24.90;96.30;;;;;;5094204;28;20418;-45
2022/07/30 11:46:16;;;;;;;8.20;7.60;;;25.00;96.20;;;;;;5093804;28;20462;-45
2022/07/30 11:49:07;;;;;;;10.23;8.80;;;25.00;96.90;;;;;;5093152;28;20423;-43
2022/07/30 11:51:44;;;;;;;9.20;8.53;;;25.00;95.70;;;;;;5092514;28;20426;-46
2022/07/30 11:54:11;;;;;;;8.60;7.80;;;25.00;95.60;;;;;;5090366;28;20418;-44
2022/07/30 11:56:50;;;;;;;7.20;6.60;;;25.00;94.40;;;;;;5095516;28;20808;-45
2022/07/30 11:59:16;;;;;;;6.60;6.10;;;25.00;94.20;;;;;;5092645;28;20419;-44
2022/07/30 12:01:42;;;;;;;5.93;5.53;;;25.00;94.00;;;;;;5097355;28;20483;-43
2022/07/30 12:04:08;;;;;;;5.77;5.27;;;25.20;95.40;;;;;;5090627;28;20191;-43
2022/07/30 12:06:43;;;;;;;5.97;4.90;;;25.20;94.70;;;;;;5099904;28;20457;-50
2022/07/30 12:09:09;;;;;;;7.37;5.30;;;25.30;93.50;;;;;;5089297;28;20414;-44
2022/07/30 12:11:36;;;;;;;6.97;5.07;;;25.40;93.80;;;;;;5090993;28;20447;-47
2022/07/30 12:14:02;;;;;;;6.03;5.03;;;25.40;93.40;;;;;;5090745;28;20184;-44
2022/07/30 12:16:30;;;;;;;6.07;4.50;;;25.30;92.30;;;;;;5091310;28;20434;-45
2022/07/30 12:19:02;;;;;;;5.63;4.20;;;25.30;92.30;;;;;;5089323;28;20475;-45
2022/07/30 12:21:28;;;;;;;4.13;3.73;;;25.40;92.10;;;;;;5091432;28;20457;-44
2022/07/30 12:23:54;;;;;;;4.43;3.10;;;25.50;92.90;;;;;;5091324;28;20442;-46
2022/07/30 12:26:31;;;;;;;4.10;3.80;;;25.50;92.30;;;;;;5090055;28;20208;-46
2022/07/30 12:28:59;;;;;;;4.10;3.67;;;25.50;91.80;;;;;;5090334;28;20425;-48
2022/07/30 12:31:26;;;;;;;4.83;4.37;;;25.60;91.00;;;;;;5091346;28;20450;-45
2022/07/30 12:33:55;;;;;;;4.53;3.60;;;25.70;91.70;;;;;;5091424;28;20521;-43
2022/07/30 12:36:32;;;;;;;4.10;3.70;;;25.70;91.60;;;;;;5091136;28;20418;-46
2022/07/30 12:38:59;;;;;;;4.00;3.30;;;25.70;89.40;;;;;;5091388;28;20418;-43
2022/07/30 12:41:45;;;;;;;3.27;2.97;;;25.50;88.00;;;;;;5091212;28;20414;-46